El Aaiún, El Aaiun Hassan Airport (GMML)

NameEl Aaiun Hassan Airport
CityEl Aaiún
CountryWestern Sahara
ICAOGMML
IATAEUN
Altitude63 m
CoordinatesGoogle Map
Live Air TrafficLiveATC.net
METARGMML 090850Z 06016KT 5000 SCT016 15/15 Q1027 NOSIG
2020-02-09 08:50:00 Wind: Northeast (60°) 8.23 m/s - Visibility: 5000 m - Temperature: 15 °C - Dew point: 15 °C - Humidity: 100% - Pressure: 1027 hPa

Sorry, no flights used the airport in this database.